Time;durP1;ratioP1;P1;durP2;ratioP2;P2;SDS_P1;SDS_P2;PMS_P1;PMS_P2;Temp;Humidity;BMP_temperature;BMP_pressure;BME280_temperature;BME280_humidity;BME280_pressure;Samples;Min_cycle;Max_cycle;Signal;HPM_P1;HPM_P2
2021/08/26 00:01:08;;;;;;;3.17;2.08;;;;;;;18.69;68.33;99749.75;5014696;28;20042;-81
2021/08/26 00:06:21;;;;;;;2.83;1.83;;;;;;;18.76;67.24;99751.69;5014569;28;20049;-80
2021/08/26 00:08:50;;;;;;;2.15;1.95;;;;;;;18.85;66.58;99742.09;5014299;28;20081;-81
2021/08/26 00:11:21;;;;;;;3.15;1.88;;;;;;;18.74;67.20;99745.72;5014634;28;20108;-80
2021/08/26 00:13:50;;;;;;;3.63;2.25;;;;;;;18.72;67.73;99742.38;5014376;28;20038;-81
2021/08/26 00:16:24;;;;;;;7.18;1.83;;;;;;;18.74;67.60;99751.00;5014040;28;20120;-81
2021/08/26 00:18:52;;;;;;;5.93;2.75;;;;;;;18.88;67.04;99748.91;4995146;28;20050;-81
2021/08/26 00:21:19;;;;;;;5.72;2.70;;;;;;;18.93;66.89;99741.38;5004360;28;20069;-80
2021/08/26 00:23:46;;;;;;;3.10;2.42;;;;;;;18.96;67.15;99743.72;5014395;28;20096;-81
2021/08/26 00:26:13;;;;;;;3.38;2.70;;;;;;;18.99;67.17;99749.56;5013731;28;20050;-81
2021/08/26 00:28:40;;;;;;;5.03;3.92;;;;;;;18.88;67.41;99743.63;5014460;28;20054;-81
2021/08/26 00:31:07;;;;;;;5.85;2.88;;;;;;;18.79;67.79;99742.66;5013918;28;20034;-81
2021/08/26 00:33:35;;;;;;;6.38;2.65;;;;;;;18.72;68.31;99741.56;5014182;28;20443;-82
2021/08/26 00:36:02;;;;;;;2.63;2.42;;;;;;;18.63;68.75;99737.91;5013814;28;20100;-81
2021/08/26 00:38:29;;;;;;;3.75;2.65;;;;;;;18.62;68.77;99730.97;5013930;28;20448;-82
2021/08/26 00:40:59;;;;;;;3.85;2.75;;;;;;;18.61;69.01;99733.75;5013681;28;20073;-83
2021/08/26 00:43:31;;;;;;;5.30;2.38;;;;;;;18.48;69.30;99737.53;5013482;28;20400;-84
2021/08/26 00:45:58;;;;;;;2.65;2.42;;;;;;;18.65;69.04;99730.72;5013820;28;20041;-84
2021/08/26 00:48:26;;;;;;;4.10;2.70;;;;;;;18.69;68.39;99737.38;5013446;28;20064;-84
2021/08/26 00:50:55;;;;;;;3.95;2.28;;;;;;;18.77;67.74;99728.78;5013635;28;20041;-84
2021/08/26 00:53:22;;;;;;;3.60;2.17;;;;;;;18.80;67.75;99729.31;5013511;28;20038;-86
2021/08/26 00:55:53;;;;;;;6.38;2.13;;;;;;;18.81;67.83;99728.34;5013916;28;20046;-87
2021/08/26 00:58:22;;;;;;;5.68;2.22;;;;;;;18.49;68.67;99726.00;5013354;28;20107;-85
2021/08/26 01:00:51;;;;;;;2.63;1.90;;;;;;;18.64;68.56;99725.53;5013851;28;20053;-85
2021/08/26 01:03:27;;;;;;;4.07;1.85;;;;;;;18.72;67.82;99721.28;5012849;28;20504;-84
2021/08/26 01:05:58;;;;;;;3.75;2.00;;;;;;;18.71;66.87;99718.78;5013471;28;20112;-85
2021/08/26 01:08:40;;;;;;;2.30;1.58;;;;;;;18.75;67.29;99717.50;5013436;28;20049;-85
2021/08/26 01:11:08;;;;;;;1.60;1.50;;;;;;;18.78;66.61;99710.13;5013300;28;20076;-85
2021/08/26 01:13:39;;;;;;;6.72;2.35;;;;;;;18.80;66.57;99716.13;5013150;28;20471;-85
2021/08/26 01:16:14;;;;;;;3.33;1.83;;;;;;;18.64;66.72;99713.19;5011760;28;20045;-87
2021/08/26 01:18:44;;;;;;;6.80;1.70;;;;;;;18.70;66.72;99711.84;5013228;28;20052;-87
2021/08/26 01:21:12;;;;;;;1.58;1.48;;;;;;;18.91;66.13;99693.13;5013199;28;20084;-87
2021/08/26 01:23:43;;;;;;;3.08;1.75;;;;;;;18.81;65.81;99694.03;5013138;28;20412;-85
2021/08/26 01:26:14;;;;;;;1.70;1.52;;;;;;;19.15;65.03;99690.84;5012556;28;20057;-85
2021/08/26 01:28:42;;;;;;;3.97;1.70;;;;;;;19.00;65.33;99687.84;5013034;28;20455;-85
2021/08/26 01:31:10;;;;;;;5.70;1.63;;;;;;;18.93;64.86;99678.84;5012946;28;20101;-85
2021/08/26 01:33:37;;;;;;;4.47;1.60;;;;;;;18.88;64.60;99678.44;5013014;28;20048;-85
2021/08/26 01:36:05;;;;;;;2.92;1.60;;;;;;;18.77;65.05;99681.25;5012785;28;20034;-87
2021/08/26 01:38:33;;;;;;;1.67;1.27;;;;;;;18.73;65.43;99680.69;5012831;28;20038;-88
2021/08/26 01:40:59;;;;;;;3.50;1.80;;;;;;;18.78;65.03;99681.09;5011393;28;20049;-88
2021/08/26 01:43:28;;;;;;;1.67;1.58;;;;;;;18.72;64.85;99678.19;5013001;28;20042;-87
2021/08/26 01:45:57;;;;;;;3.13;1.95;;;;;;;18.74;64.66;99676.22;5012873;28;20100;-87
2021/08/26 01:48:23;;;;;;;3.55;1.60;;;;;;;18.83;64.10;99676.22;5012732;28;20045;-87
2021/08/26 01:50:51;;;;;;;5.97;1.80;;;;;;;18.99;63.37;99685.34;5013187;28;20054;-87
2021/08/26 01:53:18;;;;;;;1.75;1.55;;;;;;;19.22;62.57;99681.34;5061053;22;20044;-74
2021/08/26 01:55:46;;;;;;;3.38;1.77;;;;;;;19.17;62.27;99678.31;5067155;28;20048;-74
2021/08/26 01:58:14;;;;;;;5.22;1.55;;;;;;;19.04;62.59;99683.09;5062487;28;20079;-74
2021/08/26 02:00:41;;;;;;;3.97;1.60;;;;;;;19.06;63.34;99683.78;5056882;28;20041;-73
2021/08/26 02:03:08;;;;;;;2.85;1.88;;;;;;;18.99;63.81;99680.06;5052755;28;20044;-74
2021/08/26 02:05:35;;;;;;;3.40;1.70;;;;;;;18.53;65.79;99671.94;5053712;28;20053;-74
2021/08/26 02:08:02;;;;;;;3.38;2.00;;;;;;;18.71;65.04;99677.38;5052602;28;20041;-74
2021/08/26 02:10:29;;;;;;;4.03;1.75;;;;;;;18.51;66.10;99670.41;5052642;28;20549;-74
2021/08/26 02:12:55;;;;;;;2.55;2.03;;;;;;;18.48;66.18;99675.97;5052530;28;20095;-75
2021/08/26 02:15:22;;;;;;;2.38;1.80;;;;;;;18.50;66.22;99674.03;5051584;28;20454;-73
2021/08/26 02:17:49;;;;;;;2.13;1.92;;;;;;;18.37;66.77;99676.94;5056734;28;20561;-74
2021/08/26 02:20:16;;;;;;;3.20;1.80;;;;;;;18.35;66.83;99667.53;5056232;28;20388;-75
2021/08/26 02:22:43;;;;;;;4.65;1.83;;;;;;;18.36;66.69;99666.53;5056776;28;20045;-75
2021/08/26 02:25:12;;;;;;;3.38;1.98;;;;;;;18.38;66.64;99667.25;5048683;28;20368;-75
2021/08/26 02:27:39;;;;;;;2.92;1.80;;;;;;;18.32;66.84;99665.97;5036214;28;20041;-75
2021/08/26 02:30:08;;;;;;;2.15;1.95;;;;;;;18.30;66.54;99667.94;5036152;28;20041;-75
2021/08/26 02:32:35;;;;;;;2.80;1.70;;;;;;;18.25;67.14;99662.25;5036575;28;20046;-76
2021/08/26 02:35:04;;;;;;;4.78;1.95;;;;;;;18.18;67.59;99654.06;5035921;28;20480;-74
2021/08/26 02:37:30;;;;;;;4.22;1.70;;;;;;;18.15;68.00;99656.16;5036528;28;20045;-77
2021/08/26 02:39:57;;;;;;;2.58;1.90;;;;;;;18.11;68.42;99649.47;5036168;28;20045;-77
2021/08/26 02:42:24;;;;;;;5.30;2.10;;;;;;;18.15;68.22;99650.88;5034960;28;20087;-76
2021/08/26 02:44:51;;;;;;;6.82;2.50;;;;;;;18.12;68.47;99649.34;5036560;28;20088;-73
2021/08/26 02:47:18;;;;;;;4.20;2.38;;;;;;;18.14;68.71;99651.84;5035850;28;20125;-74
2021/08/26 02:49:46;;;;;;;2.72;2.50;;;;;;;18.33;68.03;99649.22;5036258;28;20399;-73
2021/08/26 02:52:13;;;;;;;2.20;1.92;;;;;;;18.17;68.52;99647.13;5034306;28;20491;-76
2021/08/26 02:54:39;;;;;;;2.35;2.15;;;;;;;18.15;68.34;99642.97;5036133;28;20122;-76
2021/08/26 02:57:07;;;;;;;3.03;2.33;;;;;;;18.25;67.95;99639.34;5035415;28;20041;-75
2021/08/26 02:59:33;;;;;;;3.08;2.13;;;;;;;18.08;68.30;99640.06;5035922;28;20095;-76
2021/08/26 03:02:00;;;;;;;3.88;1.85;;;;;;;18.10;68.26;99640.72;5035899;28;20057;-76
2021/08/26 03:04:27;;;;;;;2.03;1.60;;;;;;;17.92;68.94;99647.69;5036019;28;20045;-76
2021/08/26 03:06:54;;;;;;;5.68;2.55;;;;;;;17.91;68.52;99638.94;5035716;28;20034;-76
2021/08/26 03:09:21;;;;;;;4.10;1.95;;;;;;;17.84;68.96;99640.44;5035416;28;20049;-72
2021/08/26 03:11:49;;;;;;;2.45;1.77;;;;;;;17.74;69.56;99635.19;5035860;28;20041;-77
2021/08/26 03:14:15;;;;;;;2.00;1.60;;;;;;;17.85;69.02;99630.75;5035513;28;20029;-73
2021/08/26 03:16:42;;;;;;;2.17;1.88;;;;;;;17.76;69.35;99627.13;5035623;28;20065;-72
2021/08/26 03:19:09;;;;;;;4.97;1.90;;;;;;;17.75;69.35;99626.31;5035220;28;20100;-73
2021/08/26 03:21:36;;;;;;;2.10;1.90;;;;;;;17.87;68.68;99623.53;5035422;28;20480;-73
2021/08/26 03:24:04;;;;;;;2.47;1.55;;;;;;;17.93;68.19;99626.44;5034882;28;20038;-76
2021/08/26 03:26:31;;;;;;;2.22;1.75;;;;;;;17.97;67.88;99619.09;5035468;28;20046;-76
2021/08/26 03:29:00;;;;;;;4.80;1.80;;;;;;;17.84;68.29;99629.06;5035290;28;20399;-76
2021/08/26 03:31:27;;;;;;;1.60;1.50;;;;;;;17.93;68.13;99615.06;5035409;28;20045;-76
2021/08/26 03:33:53;;;;;;;1.95;1.77;;;;;;;17.95;67.62;99615.75;5035205;28;20112;-76
2021/08/26 03:36:20;;;;;;;2.90;1.58;;;;;;;17.82;68.26;99607.28;5035216;28;20107;-75
2021/08/26 03:38:47;;;;;;;4.78;2.55;;;;;;;17.86;67.85;99601.63;5035201;28;20049;-76
2021/08/26 03:41:14;;;;;;;5.30;4.80;;;;;;;17.99;68.08;99601.31;5035778;28;20049;-75
2021/08/26 03:43:41;;;;;;;3.60;2.85;;;;;;;17.95;68.25;99606.06;5035344;28;20076;-75
2021/08/26 03:46:07;;;;;;;4.80;3.55;;;;;;;18.17;67.29;99604.94;5034805;28;20072;-75
2021/08/26 03:48:36;;;;;;;5.72;3.30;;;;;;;18.17;68.49;99606.75;5035084;28;20041;-75
2021/08/26 03:51:03;;;;;;;5.53;3.03;;;;;;;17.84;69.63;99602.72;5034428;28;20103;-75
2021/08/26 03:53:30;;;;;;;5.95;2.63;;;;;;;17.57;70.84;99606.00;5034833;28;20057;-75
2021/08/26 03:55:56;;;;;;;3.08;2.78;;;;;;;17.55;71.16;99606.97;5034836;28;20091;-75
2021/08/26 03:58:23;;;;;;;5.05;3.65;;;;;;;17.60;71.74;99598.66;5034541;28;20046;-76
2021/08/26 04:00:50;;;;;;;5.40;3.35;;;;;;;17.70;71.60;99588.13;5034554;28;20091;-76
2021/08/26 04:03:17;;;;;;;7.75;3.53;;;;;;;17.52;72.34;99587.94;5034573;28;20093;-75
2021/08/26 04:05:44;;;;;;;2.92;2.72;;;;;;;17.49;72.41;99580.34;5034914;28;20069;-76
2021/08/26 04:08:10;;;;;;;4.22;2.92;;;;;;;17.47;72.60;99576.97;5034664;28;20045;-76
2021/08/26 04:10:37;;;;;;;4.68;3.42;;;;;;;17.44;73.05;99583.38;5034688;28;20060;-75
2021/08/26 04:13:04;;;;;;;5.90;2.97;;;;;;;17.39;73.16;99576.84;5034407;28;20072;-76
2021/08/26 04:15:31;;;;;;;5.00;3.20;;;;;;;17.34;73.06;99581.69;5034350;28;20049;-75
2021/08/26 04:17:57;;;;;;;4.60;3.20;;;;;;;17.29;73.67;99580.28;5016016;28;20048;-75
2021/08/26 04:20:25;;;;;;;6.13;2.97;;;;;;;17.12;74.14;99578.31;5033999;28;20095;-75
2021/08/26 04:22:52;;;;;;;5.13;3.25;;;;;;;17.08;74.80;99589.25;5034535;28;20103;-76
2021/08/26 04:25:18;;;;;;;8.35;3.38;;;;;;;17.31;74.42;99600.38;5034307;28;20042;-76
2021/08/26 04:27:46;;;;;;;3.97;3.63;;;;;;;17.03;75.38;99597.53;5034151;28;20046;-77
2021/08/26 04:30:14;;;;;;;6.07;3.97;;;;;;;17.28;75.13;99601.50;5033919;28;20099;-77
2021/08/26 04:32:40;;;;;;;7.00;3.80;;;;;;;17.18;75.70;99608.53;5014503;28;20050;-77
2021/08/26 04:35:08;;;;;;;4.10;3.40;;;;;;;17.18;75.45;99606.75;5017650;28;20037;-76
2021/08/26 04:37:34;;;;;;;7.18;3.90;;;;;;;17.21;75.57;99603.84;5034196;28;20487;-76
2021/08/26 04:40:01;;;;;;;5.40;3.72;;;;;;;17.69;73.65;99600.47;5033566;28;20458;-75
2021/08/26 04:42:28;;;;;;;5.85;3.97;;;;;;;18.06;71.27;99600.63;5034209;28;20037;-76
2021/08/26 04:44:54;;;;;;;10.13;3.63;;;;;;;18.33;70.46;99601.72;5033455;28;20046;-76
2021/08/26 04:47:22;;;;;;;5.30;3.53;;;;;;;18.35;70.17;99598.94;5033712;28;20589;-75
2021/08/26 04:49:49;;;;;;;9.77;3.28;;;;;;;18.71;68.34;99603.44;5025296;28;20091;-76
2021/08/26 04:52:15;;;;;;;4.05;2.83;;;;;;;19.06;67.02;99609.81;5029687;28;20053;-76
2021/08/26 04:54:43;;;;;;;4.20;3.17;;;;;;;18.73;67.15;99608.56;5040508;28;20046;-75
2021/08/26 04:57:09;;;;;;;5.05;3.50;;;;;;;18.56;67.75;99610.94;5038752;28;20041;-75
2021/08/26 04:59:36;;;;;;;10.45;3.95;;;;;;;18.70;67.52;99609.72;5042702;28;20119;-76
2021/08/26 05:02:03;;;;;;;3.20;2.90;;;;;;;19.32;65.20;99609.97;5033839;28;20056;-76
2021/08/26 05:04:32;;;;;;;3.83;3.08;;;;;;;20.09;62.28;99598.84;5034301;28;20049;-76
2021/08/26 05:06:59;;;;;;;8.73;2.72;;;;;;;20.03;62.32;99611.88;5033468;28;20400;-75
2021/08/26 05:09:26;;;;;;;6.60;2.90;;;;;;;20.18;61.59;99607.66;5033130;28;20037;-76
2021/08/26 05:11:58;;;;;;;8.00;2.72;;;;;;;20.76;59.75;99604.44;5033152;28;20550;-76
2021/08/26 05:14:24;;;;;;;4.95;3.50;;;;;;;20.74;59.78;99602.94;5033268;28;20045;-76
2021/08/26 05:16:51;;;;;;;5.20;3.33;;;;;;;20.09;62.04;99606.78;5033373;28;20057;-75
2021/08/26 05:19:18;;;;;;;3.65;3.35;;;;;;;19.17;65.91;99616.72;5032929;28;20373;-75
2021/08/26 05:21:47;;;;;;;4.72;3.80;;;;;;;19.48;65.17;99617.25;5032941;28;20045;-75
2021/08/26 05:24:14;;;;;;;5.53;5.03;;;;;;;19.15;66.86;99616.03;5032395;28;20412;-75
2021/08/26 05:26:42;;;;;;;6.43;4.85;;;;;;;19.07;67.48;99628.19;5032689;28;20038;-77
2021/08/26 05:29:09;;;;;;;9.05;5.95;;;;;;;19.23;67.78;99622.28;5022682;28;20037;-78
2021/08/26 05:31:36;;;;;;;7.47;6.43;;;;;;;19.77;66.04;99625.84;5027010;28;20048;-79
2021/08/26 05:34:03;;;;;;;8.63;5.90;;;;;;;19.54;67.12;99627.22;5030466;28;20044;-78
2021/08/26 05:36:29;;;;;;;7.50;6.18;;;;;;;19.99;65.65;99627.22;5028313;28;20041;-79
2021/08/26 05:38:56;;;;;;;7.10;6.40;;;;;;;20.11;64.84;99625.97;5031037;28;20030;-79
2021/08/26 05:41:23;;;;;;;5.72;4.50;;;;;;;20.07;64.76;99621.13;5027575;28;20538;-79
2021/08/26 05:43:50;;;;;;;9.00;5.40;;;;;;;20.23;64.23;99618.63;5028037;28;20041;-78
2021/08/26 05:46:17;;;;;;;6.40;4.93;;;;;;;20.29;63.91;99628.59;5029438;28;20042;-78
2021/08/26 05:48:44;;;;;;;8.93;7.97;;;;;;;20.38;63.89;99627.66;5031330;28;20384;-79
2021/08/26 05:51:11;;;;;;;13.73;11.45;;;;;;;19.97;66.88;99645.03;5026425;28;20072;-77
2021/08/26 05:53:38;;;;;;;13.27;10.13;;;;;;;20.02;67.01;99637.47;5027240;28;20180;-78
2021/08/26 05:56:05;;;;;;;10.13;9.02;;;;;;;20.23;65.96;99629.22;5029908;28;20040;-78
2021/08/26 05:58:32;;;;;;;15.90;10.60;;;;;;;19.69;67.56;99638.97;5023851;28;20041;-78
2021/08/26 06:00:59;;;;;;;10.77;8.73;;;;;;;19.84;67.75;99634.84;5027860;28;20045;-78
2021/08/26 06:03:29;;;;;;;9.25;8.32;;;;;;;20.29;65.66;99636.53;5027557;28;20042;-77
2021/08/26 06:05:56;;;;;;;8.63;7.82;;;;;;;20.19;65.80;99634.97;5027033;28;20095;-76
2021/08/26 06:08:27;;;;;;;12.48;7.70;;;;;;;20.41;65.41;99640.63;5027298;28;20045;-76
2021/08/26 06:10:54;;;;;;;9.23;7.10;;;;;;;19.87;66.85;99644.31;5029865;28;20048;-76
2021/08/26 06:13:20;;;;;;;9.55;8.65;;;;;;;19.74;67.15;99643.81;5025059;28;20107;-75
2021/08/26 06:15:47;;;;;;;15.07;9.55;;;;;;;19.68;67.65;99637.31;5026092;28;20128;-76
2021/08/26 06:18:15;;;;;;;8.43;7.72;;;;;;;20.26;65.52;99630.72;5023679;28;20045;-74
2021/08/26 06:20:42;;;;;;;10.40;8.05;;;;;;;20.72;63.59;99623.44;5026197;28;20140;-76
2021/08/26 06:23:09;;;;;;;9.85;8.88;;;;;;;20.50;64.04;99622.16;5024416;28;20064;-75
2021/08/26 06:25:36;;;;;;;8.45;7.65;;;;;;;20.27;65.12;99621.81;5026270;28;20079;-76
2021/08/26 06:28:03;;;;;;;9.10;7.35;;;;;;;20.70;63.61;99610.38;5018524;28;20108;-76
2021/08/26 06:30:31;;;;;;;11.15;8.25;;;;;;;20.86;62.98;99610.44;5024639;28;20290;-75
2021/08/26 06:32:57;;;;;;;15.57;8.20;;;;;;;20.42;64.85;99615.81;5024416;28;20087;-75
2021/08/26 06:35:24;;;;;;;22.02;9.55;;;;;;;20.35;64.87;99614.78;5025904;28;20045;-79
2021/08/26 06:37:51;;;;;;;9.32;7.53;;;;;;;20.08;66.33;99615.72;5026962;28;20049;-75
2021/08/26 06:40:18;;;;;;;10.23;9.23;;;;;;;20.62;64.63;99612.97;5028371;28;20044;-76
2021/08/26 06:42:45;;;;;;;10.77;8.45;;;;;;;20.23;65.91;99623.91;5025752;28;20045;-76
2021/08/26 06:45:12;;;;;;;10.68;9.50;;;;;;;20.17;66.43;99623.72;5029969;28;20091;-75
2021/08/26 06:47:38;;;;;;;12.13;9.88;;;;;;;20.30;66.25;99621.50;5029845;28;20050;-75
2021/08/26 06:50:06;;;;;;;9.52;8.38;;;;;;;19.94;66.26;99626.00;5028191;28;20496;-75
2021/08/26 06:52:32;;;;;;;9.25;7.28;;;;;;;20.44;64.15;99614.81;5031077;28;20046;-75
2021/08/26 06:55:04;;;;;;;11.98;7.18;;;;;;;20.17;64.84;99621.06;5027593;28;20038;-76
2021/08/26 06:57:32;;;;;;;8.35;5.95;;;;;;;20.21;64.60;99615.31;5028991;28;20041;-75
2021/08/26 06:59:59;;;;;;;11.63;6.22;;;;;;;20.71;62.96;99612.03;5028080;28;20046;-76
2021/08/26 07:02:26;;;;;;;4.90;4.40;;;;;;;20.85;61.71;99603.50;5023962;28;20120;-75
2021/08/26 07:04:53;;;;;;;8.15;4.80;;;;;;;20.89;60.45;99602.22;5021652;28;20042;-74
2021/08/26 07:07:20;;;;;;;6.78;4.55;;;;;;;20.90;60.46;99593.25;5029564;28;20045;-75
2021/08/26 07:09:47;;;;;;;6.07;3.70;;;;;;;20.87;59.96;99596.22;5029150;28;20048;-75
2021/08/26 07:12:13;;;;;;;6.82;3.90;;;;;;;20.95;60.35;99581.38;5028815;28;20042;-74
2021/08/26 07:14:40;;;;;;;4.82;3.42;;;;;;;21.45;59.55;99587.50;5030679;28;20095;-76
2021/08/26 07:17:07;;;;;;;7.63;3.92;;;;;;;21.60;58.89;99589.53;5032859;28;20037;-73
2021/08/26 07:19:34;;;;;;;10.52;4.10;;;;;;;21.47;58.56;99584.72;5033077;28;20103;-75
2021/08/26 07:22:00;;;;;;;3.33;2.97;;;;;;;21.55;58.32;99597.16;5055095;28;20099;-78
2021/08/26 07:24:27;;;;;;;5.70;3.90;;;;;;;21.49;58.84;99593.31;5032293;28;20042;-77
2021/08/26 07:26:54;;;;;;;5.55;3.15;;;;;;;21.16;59.03;99590.56;5026798;28;20038;-76
2021/08/26 07:29:21;;;;;;;8.68;4.65;;;;;;;21.34;59.16;99579.84;5029143;28;20045;-76
2021/08/26 07:31:47;;;;;;;5.32;4.25;;;;;;;21.24;59.08;99580.97;5031425;28;20064;-75
2021/08/26 07:34:14;;;;;;;4.30;3.90;;;;;;;21.15;59.39;99585.41;5030626;28;20033;-75
2021/08/26 07:36:41;;;;;;;4.18;3.78;;;;;;;21.10;59.94;99585.91;5027287;28;20073;-76
2021/08/26 07:39:08;;;;;;;7.80;5.40;;;;;;;21.21;59.57;99584.78;5030272;28;20037;-79
2021/08/26 07:41:34;;;;;;;6.78;4.97;;;;;;;21.30;59.57;99583.00;5031139;28;20104;-77
2021/08/26 07:44:01;;;;;;;8.07;5.72;;;;;;;21.15;59.94;99577.47;5032103;28;20412;-74
2021/08/26 07:46:28;;;;;;;6.30;5.40;;;;;;;21.31;59.07;99572.25;5030460;28;20380;-73
2021/08/26 07:48:55;;;;;;;9.15;6.20;;;;;;;21.71;58.12;99565.34;5030939;28;20067;-73
2021/08/26 07:51:21;;;;;;;7.30;4.55;;;;;;;21.53;58.41;99570.81;5025632;28;20053;-73
2021/08/26 07:53:48;;;;;;;9.25;5.07;;;;;;;21.39;58.65;99566.94;5028893;28;20045;-73
2021/08/26 07:56:15;;;;;;;7.78;4.47;;;;;;;21.57;58.84;99565.97;5028038;28;20053;-73
2021/08/26 07:58:43;;;;;;;6.70;4.72;;;;;;;21.69;58.08;99568.16;5027905;28;20068;-73
2021/08/26 08:01:09;;;;;;;6.32;3.83;;;;;;;21.50;58.47;99565.81;5025368;28;20038;-75
2021/08/26 08:03:36;;;;;;;5.72;4.28;;;;;;;21.38;58.85;99562.66;5026681;28;20042;-75
2021/08/26 08:06:05;;;;;;;4.53;3.65;;;;;;;21.81;57.27;99559.88;5026343;28;20412;-73
2021/08/26 08:08:32;;;;;;;5.13;3.47;;;;;;;21.82;57.25;99565.00;5030922;28;20443;-74
2021/08/26 08:10:59;;;;;;;6.45;4.25;;;;;;;21.83;57.44;99557.88;5030558;28;20037;-73
2021/08/26 08:13:30;;;;;;;6.53;4.18;;;;;;;22.00;56.83;99556.03;5027800;28;20049;-74
2021/08/26 08:15:57;;;;;;;4.35;3.90;;;;;;;21.71;56.93;99552.91;5032230;28;20045;-74
2021/08/26 08:18:24;;;;;;;5.63;3.35;;;;;;;22.00;55.55;99559.56;5030703;28;20038;-74
2021/08/26 08:20:52;;;;;;;6.03;3.58;;;;;;;22.12;56.06;99554.75;5030602;28;20484;-75
2021/08/26 08:23:18;;;;;;;6.03;5.00;;;;;;;22.31;56.10;99551.72;5028924;28;20091;-74
2021/08/26 08:25:45;;;;;;;7.22;4.90;;;;;;;22.15;56.75;99544.63;5030867;28;20038;-73
2021/08/26 08:28:15;;;;;;;4.22;3.75;;;;;;;22.01;57.22;99547.13;5027420;28;20095;-73
2021/08/26 08:30:42;;;;;;;4.95;4.50;;;;;;;21.95;56.94;99549.44;5028564;28;20107;-73
2021/08/26 08:33:13;;;;;;;6.15;4.00;;;;;;;22.33;56.10;99540.97;5028879;28;20037;-73
2021/08/26 08:35:41;;;;;;;5.78;3.63;;;;;;;22.56;55.32;99541.06;5028724;28;20060;-73
2021/08/26 08:38:07;;;;;;;5.00;3.88;;;;;;;22.40;55.28;99542.75;5032612;28;20029;-73
2021/08/26 08:40:34;;;;;;;12.90;3.90;;;;;;;22.65;55.13;99538.22;5023444;28;20052;-73
2021/08/26 08:43:01;;;;;;;5.88;3.72;;;;;;;22.95;53.89;99539.25;5031090;28;20535;-73
2021/08/26 08:45:28;;;;;;;6.82;3.80;;;;;;;22.61;54.90;99528.09;5031164;28;20049;-73
2021/08/26 08:47:58;;;;;;;7.28;4.03;;;;;;;22.43;54.66;99529.16;5032411;28;20048;-73
2021/08/26 08:50:26;;;;;;;8.68;4.10;;;;;;;22.46;55.41;99531.44;5032046;28;20049;-73
2021/08/26 08:52:53;;;;;;;6.90;5.03;;;;;;;22.50;54.44;99529.28;5026579;28;20541;-73
2021/08/26 08:55:20;;;;;;;7.13;4.20;;;;;;;22.85;53.55;99532.47;5052429;28;20095;-74
2021/08/26 08:57:47;;;;;;;5.03;3.97;;;;;;;22.87;54.18;99525.16;5030543;28;20103;-73
2021/08/26 09:00:17;;;;;;;5.00;4.40;;;;;;;22.73;54.44;99526.72;5030228;28;20060;-74
2021/08/26 09:02:44;;;;;;;4.85;4.35;;;;;;;22.66;54.07;99520.44;5025134;28;20129;-74
2021/08/26 09:05:12;;;;;;;7.70;4.38;;;;;;;22.62;54.06;99521.78;5031906;28;20103;-74
2021/08/26 09:07:39;;;;;;;5.68;4.63;;;;;;;22.61;53.49;99522.78;5031725;28;20042;-73
2021/08/26 09:10:07;;;;;;;9.05;4.05;;;;;;;22.93;53.08;99513.88;5028616;28;20033;-73
2021/08/26 09:12:43;;;;;;;6.35;3.53;;;;;;;23.36;52.04;99520.44;5031421;28;20049;-75
2021/08/26 09:15:18;;;;;;;4.82;3.95;;;;;;;23.17;52.41;99519.06;5025852;28;20110;-72
2021/08/26 09:17:46;;;;;;;5.00;4.47;;;;;;;23.05;53.44;99516.97;5031652;28;20396;-72
2021/08/26 09:20:19;;;;;;;5.75;4.85;;;;;;;23.46;52.54;99513.03;5030451;28;20240;-74
2021/08/26 09:22:47;;;;;;;4.88;4.05;;;;;;;23.49;51.60;99512.69;5027388;28;22246;-72
2021/08/26 09:25:23;;;;;;;14.75;4.35;;;;;;;23.39;52.26;99512.09;5029014;28;20091;-73
2021/08/26 09:27:50;;;;;;;8.98;5.18;;;;;;;23.57;51.38;99509.13;5030008;28;20033;-73
2021/08/26 09:30:19;;;;;;;7.88;3.95;;;;;;;23.83;50.54;99503.47;5030599;28;20034;-72
2021/08/26 09:32:47;;;;;;;6.90;4.30;;;;;;;23.91;51.02;99506.03;5030697;28;20045;-73
2021/08/26 09:35:25;;;;;;;5.60;5.10;;;;;;;23.44;51.31;99509.75;5030358;28;20092;-73
2021/08/26 09:37:55;;;;;;;8.15;5.40;;;;;;;23.35;51.89;99515.28;5024836;28;20048;-75
2021/08/26 09:40:29;;;;;;;9.30;5.28;;;;;;;23.48;51.86;99503.03;5026121;28;20129;-74
2021/08/26 09:43:01;;;;;;;12.63;5.57;;;;;;;23.71;50.90;99504.91;5017906;28;20048;-75
2021/08/26 09:45:33;;;;;;;5.72;5.03;;;;;;;23.57;50.67;99501.16;5019702;28;20088;-74
2021/08/26 09:48:03;;;;;;;6.47;4.85;;;;;;;23.72;50.10;99498.59;5015422;28;20037;-76
2021/08/26 09:50:45;;;;;;;5.85;5.07;;;;;;;24.19;49.52;99492.97;5023511;28;20088;-73
2021/08/26 09:53:15;;;;;;;6.53;4.22;;;;;;;24.39;48.48;99490.59;5024421;28;20561;-74
2021/08/26 09:55:49;;;;;;;7.35;5.68;;;;;;;24.21;49.13;99490.94;5023789;28;20041;-74
2021/08/26 09:58:24;;;;;;;6.30;4.72;;;;;;;24.30;48.82;99479.19;5031662;28;20044;-74
2021/08/26 10:01:07;;;;;;;4.68;4.28;;;;;;;24.47;47.99;99479.03;5031708;28;20202;-74
2021/08/26 10:03:35;;;;;;;5.20;4.68;;;;;;;24.64;47.82;99471.66;5032850;28;20092;-74
2021/08/26 10:06:02;;;;;;;4.93;4.50;;;;;;;24.34;47.43;99471.66;5031975;28;20086;-75
2021/08/26 10:08:31;;;;;;;7.55;4.85;;;;;;;24.48;47.64;99465.53;5032174;28;20045;-75
2021/08/26 10:11:03;;;;;;;5.32;3.75;;;;;;;24.97;46.48;99464.88;5032656;28;20128;-75
2021/08/26 10:13:30;;;;;;;5.47;3.90;;;;;;;24.62;46.08;99465.72;5032636;28;20068;-75
2021/08/26 10:15:58;;;;;;;6.65;4.68;;;;;;;24.68;45.14;99457.78;5037268;28;20492;-72
2021/08/26 10:18:29;;;;;;;6.43;3.30;;;;;;;24.88;44.43;99454.53;5047438;28;20041;-74
2021/08/26 10:20:57;;;;;;;5.00;2.92;;;;;;;24.78;44.63;99457.50;5048706;28;20045;-74
2021/08/26 10:23:25;;;;;;;6.57;4.88;;;;;;;25.34;45.69;99455.03;5033252;28;20048;-75
2021/08/26 10:25:55;;;;;;;3.72;3.42;;;;;;;25.06;44.99;99458.44;5032983;28;20029;-75
2021/08/26 10:28:22;;;;;;;5.57;4.82;;;;;;;24.59;45.56;99453.56;5031903;28;20045;-75
2021/08/26 10:30:49;;;;;;;5.97;4.45;;;;;;;24.99;45.43;99452.19;5032343;28;20099;-78
2021/08/26 10:33:22;;;;;;;8.65;4.28;;;;;;;25.03;44.39;99442.78;5031823;28;20034;-76
2021/08/26 10:35:59;;;;;;;5.90;3.85;;;;;;;25.28;43.98;99432.59;5032765;28;20488;-74
2021/08/26 10:38:29;;;;;;;9.18;2.95;;;;;;;25.64;44.25;99433.53;5036644;28;20077;-73
2021/08/26 10:41:18;;;;;;;5.75;3.40;;;;;;;25.91;43.57;99430.06;5034861;28;20041;-75
2021/08/26 10:44:04;;;;;;;7.85;4.13;;;;;;;25.34;44.90;99431.84;5033473;28;20140;-75
2021/08/26 10:46:49;;;;;;;4.63;3.03;;;;;;;25.71;43.15;99429.88;5036194;28;20496;-75
2021/08/26 10:49:18;;;;;;;5.22;3.20;;;;;;;25.58;42.39;99438.63;5034137;28;20045;-74
2021/08/26 10:51:47;;;;;;;3.90;3.50;;;;;;;25.40;42.43;99435.56;5035348;28;20080;-73
2021/08/26 10:54:32;;;;;;;5.05;3.00;;;;;;;25.44;42.79;99433.34;5035363;28;20446;-75
2021/08/26 10:57:17;;;;;;;;;;;;;;;25.66;42.39;99424.28;5034679;28;20042;-74
2021/08/26 10:59:44;;;;;;;4.25;3.58;;;;;;;25.86;41.74;99421.81;5035884;28;20371;-75
2021/08/26 11:02:38;;;;;;;6.68;2.75;;;;;;;26.01;41.86;99409.16;5033082;28;20049;-76
2021/08/26 11:05:30;;;;;;;5.50;2.45;;;;;;;26.08;41.78;99418.03;5032292;28;20403;-73
2021/08/26 11:07:57;;;;;;;4.93;3.97;;;;;;;25.52;42.53;99420.72;5035010;28;20041;-76
2021/08/26 11:10:26;;;;;;;2.38;2.05;;;;;;;26.12;41.48;99405.94;5034666;28;20041;-74
2021/08/26 11:12:52;;;;;;;5.00;3.05;;;;;;;25.64;42.20;99393.50;5029745;28;20055;-74
2021/08/26 11:15:26;;;;;;;7.63;2.80;;;;;;;25.95;41.61;99393.13;5035583;28;20042;-77
2021/08/26 11:17:52;;;;;;;5.13;2.65;;;;;;;26.07;41.68;99397.69;5035214;28;20033;-78
2021/08/26 11:20:28;;;;;;;15.23;3.53;;;;;;;26.16;41.48;99389.53;5035393;28;20049;-75
2021/08/26 11:23:05;;;;;;;3.10;2.40;;;;;;;26.00;41.83;99401.38;5034114;28;20057;-76
2021/08/26 11:25:31;;;;;;;5.38;3.22;;;;;;;25.99;41.80;99392.50;5034793;28;20048;-77
2021/08/26 11:28:29;;;;;;;9.55;3.33;;;;;;;25.95;41.33;99399.28;5033826;28;20038;-77
2021/08/26 11:31:16;;;;;;;3.75;2.65;;;;;;;26.25;40.97;99393.66;5033818;28;20049;-78
2021/08/26 11:33:42;;;;;;;5.85;2.80;;;;;;;26.33;40.50;99385.50;5034846;28;20045;-79
2021/08/26 11:36:15;;;;;;;4.55;2.30;;;;;;;26.34;40.57;99382.63;5034664;28;20480;-79
2021/08/26 11:38:46;;;;;;;3.15;2.53;;;;;;;26.57;40.19;99376.97;5034461;28;20045;-79
2021/08/26 11:41:13;;;;;;;6.05;2.72;;;;;;;26.70;40.43;99378.88;5034244;28;20068;-78